Terminal Aerodrome Forecast
Issued by NWS Cleveland, OH

Home | Current Version | Previous Version | Text Only | Print | Product List | Glossary On
Versions: 1 2 3 4 5 6 7 8 9 10 11 12 13 14 15
000
FTUS41 KCLE 252300
TAFTOL
TAF
KTOL 252328Z 2600/2624 22008KT P6SM BKN150
     FM260900 22004KT P6SM BKN100
     FM261300 20006KT P6SM BKN070
     FM261800 20010KT P6SM OVC050 PROB30 2619/2623 3SM TSRA
      OVC025CB=

USA.gov is the U.S. government's official web portal to all federal, state and local government web resources and services.